Time;durP1;ratioP1;P1;durP2;ratioP2;P2;SDS_P1;SDS_P2;PMS_P1;PMS_P2;Temp;Humidity;BMP_temperature;BMP_pressure;BME280_temperature;BME280_humidity;BME280_pressure;Samples;Min_cycle;Max_cycle;Signal;HPM_P1;HPM_P2
2022/11/11 00:01:33;;;;;;;21.25;9.55;;;10.90;99.90;;;;;;5030984;28;20046;-63
2022/11/11 00:03:59;;;;;;;17.20;9.00;;;10.90;99.90;;;;;;5028379;28;20037;-64
2022/11/11 00:06:25;;;;;;;14.23;8.35;;;11.00;99.90;;;;;;5032006;28;20033;-64
2022/11/11 00:08:50;;;;;;;19.17;8.45;;;10.90;99.90;;;;;;5030242;28;20041;-63
2022/11/11 00:11:16;;;;;;;16.85;8.18;;;10.90;99.90;;;;;;5032264;28;20044;-63
2022/11/11 00:13:42;;;;;;;19.17;8.70;;;10.90;99.90;;;;;;5030674;28;20069;-62
2022/11/11 00:16:09;;;;;;;16.40;8.23;;;10.90;99.90;;;;;;5035507;28;20052;-62
2022/11/11 00:25:10;;;;;;;17.70;9.00;;;11.00;99.90;;;;;;5029008;28;20041;-64
2022/11/11 00:27:46;;;;;;;15.98;8.70;;;10.90;99.90;;;;;;5006144;28;20060;-64
2022/11/11 00:30:24;;;;;;;20.25;9.40;;;10.90;99.90;;;;;;5026716;28;20048;-63
2022/11/11 00:32:53;;;;;;;16.00;9.07;;;10.90;99.90;;;;;;5025786;28;20487;-63
2022/11/11 00:38:08;;;;;;;15.70;9.30;;;11.00;99.90;;;;;;5028570;28;20037;-63
2022/11/11 00:40:46;;;;;;;18.52;8.75;;;11.00;99.90;;;;;;5020597;28;20045;-63
2022/11/11 00:43:11;;;;;;;16.17;9.45;;;10.90;99.90;;;;;;5028195;28;20033;-64
2022/11/11 00:45:37;;;;;;;17.25;8.93;;;10.90;99.90;;;;;;5024964;28;20037;-64
2022/11/11 00:50:57;;;;;;;15.13;9.07;;;10.90;99.90;;;;;;5015162;28;20049;-64
2022/11/11 00:53:28;;;;;;;24.65;10.32;;;10.90;99.90;;;;;;5023592;28;20227;-64
2022/11/11 00:55:55;;;;;;;21.73;9.55;;;10.90;99.90;;;;;;5027349;28;20076;-64
2022/11/11 00:58:21;;;;;;;16.10;9.45;;;10.90;99.90;;;;;;5028498;28;20041;-64
2022/11/11 01:00:49;;;;;;;18.27;9.73;;;10.90;99.90;;;;;;5022126;28;20049;-64
2022/11/11 01:03:15;;;;;;;20.67;9.68;;;10.80;99.90;;;;;;5028805;28;20066;-64
2022/11/11 01:05:41;;;;;;;19.42;9.52;;;10.80;99.90;;;;;;5027495;28;20053;-61
2022/11/11 01:08:06;;;;;;;19.75;10.30;;;10.80;99.90;;;;;;5030006;28;20183;-62
2022/11/11 01:10:38;;;;;;;15.15;9.57;;;10.70;99.90;;;;;;5025293;28;20057;-62
2022/11/11 01:13:17;;;;;;;21.15;9.98;;;10.70;99.90;;;;;;5026851;28;20048;-63
2022/11/11 01:15:45;;;;;;;17.73;9.98;;;10.60;99.90;;;;;;5033462;28;20040;-62
2022/11/11 01:18:14;;;;;;;19.38;10.00;;;10.60;99.90;;;;;;5024687;28;20477;-62
2022/11/11 01:20:40;;;;;;;21.38;10.73;;;10.50;99.90;;;;;;5026724;28;20033;-61
2022/11/11 01:23:08;;;;;;;18.40;10.65;;;10.50;99.90;;;;;;5029912;28;20033;-64
2022/11/11 01:25:34;;;;;;;22.73;11.38;;;10.50;99.90;;;;;;5023372;28;20033;-62
2022/11/11 01:28:01;;;;;;;16.25;10.52;;;10.40;99.90;;;;;;5025098;28;20069;-65
2022/11/11 01:30:26;;;;;;;20.90;11.65;;;10.40;99.90;;;;;;5021659;28;20112;-63
2022/11/11 01:32:52;;;;;;;19.33;10.70;;;10.40;99.90;;;;;;5025007;28;20045;-66
2022/11/11 01:35:21;;;;;;;16.83;10.65;;;10.30;99.90;;;;;;5028755;28;20033;-62
2022/11/11 01:37:46;;;;;;;23.02;11.32;;;10.30;99.90;;;;;;5021795;28;20030;-64
2022/11/11 01:40:12;;;;;;;21.40;11.18;;;10.30;99.90;;;;;;5024487;28;20045;-62
2022/11/11 01:42:50;;;;;;;22.58;11.57;;;10.30;99.90;;;;;;5031943;28;20041;-63
2022/11/11 01:45:53;;;;;;;25.63;11.57;;;10.20;99.90;;;;;;5024905;28;20436;-62
2022/11/11 01:52:00;;;;;;;26.08;13.00;;;10.20;99.90;;;;;;5021652;28;20095;-65
2022/11/11 01:54:53;;;;;;;22.88;13.77;;;10.20;99.90;;;;;;5027108;28;20062;-62
2022/11/11 01:57:52;;;;;;;21.98;13.90;;;10.20;99.90;;;;;;5028402;28;20041;-65
2022/11/11 02:00:29;;;;;;;28.58;14.02;;;10.10;99.90;;;;;;5027509;28;20057;-62
2022/11/11 02:03:08;;;;;;;21.85;14.05;;;10.10;99.90;;;;;;5028776;28;20077;-62
2022/11/11 02:05:44;;;;;;;22.77;15.15;;;10.10;99.90;;;;;;5023214;28;20479;-63
2022/11/11 02:08:32;;;;;;;24.45;15.13;;;10.10;99.90;;;;;;5026885;28;20073;-62
2022/11/11 02:11:09;;;;;;;24.02;15.25;;;10.10;99.90;;;;;;5028525;28;20128;-64
2022/11/11 02:16:24;;;;;;;24.20;15.80;;;10.10;99.90;;;;;;5026948;28;20052;-62
2022/11/11 02:18:50;;;;;;;28.35;15.82;;;10.10;99.90;;;;;;5029531;28;20026;-62
2022/11/11 02:21:29;;;;;;;33.72;16.60;;;10.10;99.90;;;;;;5027028;28;20030;-63
2022/11/11 02:24:03;;;;;;;28.17;16.05;;;10.10;99.90;;;;;;5035365;28;20041;-64
2022/11/11 02:26:33;;;;;;;27.65;17.25;;;10.00;99.90;;;;;;5029073;28;20042;-62
2022/11/11 02:29:00;;;;;;;25.70;15.82;;;10.10;99.90;;;;;;5027484;28;20037;-62
2022/11/11 02:31:28;;;;;;;29.83;17.02;;;10.00;99.90;;;;;;5026572;28;20049;-65
2022/11/11 02:33:54;;;;;;;30.90;18.20;;;10.00;99.90;;;;;;5029232;28;20124;-63
2022/11/11 02:36:20;;;;;;;29.35;17.77;;;10.00;99.90;;;;;;5007628;28;20460;-62
2022/11/11 02:38:46;;;;;;;26.50;18.17;;;10.00;99.90;;;;;;5028772;28;20045;-64
2022/11/11 02:43:56;;;;;;;29.02;17.85;;;10.00;99.90;;;;;;5024353;28;20053;-64
2022/11/11 02:46:22;;;;;;;32.90;18.60;;;10.00;99.90;;;;;;5023716;28;20038;-62
2022/11/11 02:48:47;;;;;;;32.72;19.00;;;10.00;99.90;;;;;;5030129;28;20030;-62
2022/11/11 02:51:13;;;;;;;33.10;18.88;;;10.00;99.90;;;;;;5025840;28;20065;-62
2022/11/11 02:53:38;;;;;;;29.77;18.60;;;10.00;99.90;;;;;;5024963;28;20037;-63
2022/11/11 02:56:04;;;;;;;29.25;19.38;;;10.00;99.90;;;;;;5036283;28;20414;-62
2022/11/11 02:58:30;;;;;;;32.33;18.50;;;10.00;99.90;;;;;;5019419;28;20037;-62
2022/11/11 03:00:56;;;;;;;36.70;19.52;;;10.00;99.90;;;;;;5030882;28;20549;-61
2022/11/11 03:03:21;;;;;;;34.78;20.05;;;10.00;99.90;;;;;;5026530;28;20484;-62
2022/11/11 03:05:47;;;;;;;35.03;19.60;;;10.00;99.90;;;;;;5032839;28;20049;-63
2022/11/11 03:08:13;;;;;;;31.58;18.50;;;10.00;99.90;;;;;;5026586;28;20033;-64
2022/11/11 03:10:38;;;;;;;29.90;20.38;;;10.00;99.90;;;;;;5023408;28;20045;-62
2022/11/11 03:13:04;;;;;;;33.28;18.83;;;10.00;99.90;;;;;;5021461;28;20045;-62
2022/11/11 03:15:29;;;;;;;32.30;19.80;;;10.00;99.90;;;;;;5030471;28;20029;-62
2022/11/11 03:17:55;;;;;;;37.08;20.40;;;10.00;99.90;;;;;;5034855;28;20472;-66
2022/11/11 03:23:12;;;;;;;35.55;20.30;;;10.00;99.90;;;;;;5025695;28;20038;-62
2022/11/11 03:25:46;;;;;;;31.25;19.98;;;9.90;99.90;;;;;;5027339;28;20441;-62
2022/11/11 03:28:18;;;;;;;36.30;20.30;;;9.90;99.90;;;;;;5027433;28;20041;-62
2022/11/11 03:30:48;;;;;;;31.97;20.80;;;10.00;99.90;;;;;;5023191;28;20381;-65
2022/11/11 03:33:15;;;;;;;36.28;20.88;;;10.00;99.90;;;;;;5030445;28;20042;-64
2022/11/11 03:35:41;;;;;;;35.50;20.90;;;9.90;99.90;;;;;;5023203;28;20038;-63
2022/11/11 03:38:23;;;;;;;37.05;21.67;;;10.00;99.90;;;;;;5027633;28;20037;-64
2022/11/11 03:40:55;;;;;;;35.93;21.37;;;10.00;99.90;;;;;;5028652;28;20045;-62
2022/11/11 03:43:26;;;;;;;33.90;21.52;;;9.90;99.90;;;;;;5027830;28;20047;-63
2022/11/11 03:45:54;;;;;;;40.13;22.42;;;10.00;99.90;;;;;;5023049;28;20088;-63
2022/11/11 03:48:20;;;;;;;39.75;23.20;;;10.00;99.90;;;;;;5025078;28;20144;-67
2022/11/11 03:50:47;;;;;;;34.95;21.73;;;10.00;99.90;;;;;;5030468;28;20034;-66
2022/11/11 03:53:13;;;;;;;35.38;21.50;;;10.10;99.90;;;;;;5029312;28;20041;-63
2022/11/11 03:55:39;;;;;;;34.35;22.25;;;10.00;99.90;;;;;;5030040;28;20687;-62
2022/11/11 03:58:05;;;;;;;38.50;21.05;;;10.00;99.90;;;;;;5031750;28;20042;-61
2022/11/11 04:00:31;;;;;;;35.17;22.30;;;10.00;99.90;;;;;;5033543;28;20435;-62
2022/11/11 04:11:37;;;;;;;38.13;23.42;;;10.10;99.90;;;;;;5031090;28;20416;-62
2022/11/11 04:16:51;;;;;;;34.45;22.25;;;10.20;99.90;;;;;;5030477;28;20045;-63
2022/11/11 04:22:01;;;;;;;36.67;23.20;;;10.10;99.90;;;;;;5031395;28;20049;-62
2022/11/11 04:27:13;;;;;;;38.90;21.85;;;10.20;99.90;;;;;;5026797;28;20049;-63
2022/11/11 04:29:39;;;;;;;37.10;23.33;;;10.20;99.90;;;;;;5031285;28;20046;-64
2022/11/11 04:34:57;;;;;;;35.42;21.58;;;10.20;99.90;;;;;;5029712;28;20076;-62
2022/11/11 04:37:24;;;;;;;46.58;23.60;;;10.30;99.90;;;;;;5029450;28;20128;-63
2022/11/11 04:42:35;;;;;;;38.70;22.83;;;10.30;99.90;;;;;;5030639;28;20499;-62
2022/11/11 04:47:59;;;;;;;42.40;23.50;;;10.30;99.90;;;;;;5025583;28;20033;-65
2022/11/11 04:50:28;;;;;;;34.00;21.63;;;10.30;99.90;;;;;;5026010;28;20041;-63
2022/11/11 04:52:54;;;;;;;41.88;21.95;;;10.30;99.90;;;;;;5028337;28;20041;-65
2022/11/11 04:58:03;;;;;;;34.53;21.73;;;10.30;99.90;;;;;;5027633;28;20034;-64
2022/11/11 05:00:29;;;;;;;37.42;22.95;;;10.30;99.90;;;;;;5023725;28;20520;-62
2022/11/11 05:11:10;;;;;;;32.72;21.27;;;10.20;99.90;;;;;;5031139;28;20045;-63
2022/11/11 05:22:20;;;;;;;35.72;21.02;;;10.10;99.90;;;;;;5019933;28;20069;-65
2022/11/11 05:27:29;;;;;;;40.42;21.73;;;10.20;99.90;;;;;;5024608;28;20059;-63
2022/11/11 05:29:55;;;;;;;35.42;21.67;;;10.10;99.90;;;;;;5033106;28;20111;-63
2022/11/11 05:32:22;;;;;;;35.85;22.08;;;10.10;99.90;;;;;;5027432;28;20030;-65
2022/11/11 05:34:48;;;;;;;33.15;20.77;;;10.20;99.90;;;;;;5029228;28;20033;-67
2022/11/11 05:37:14;;;;;;;30.95;19.65;;;10.20;99.90;;;;;;5028363;28;20408;-63
2022/11/11 05:39:40;;;;;;;34.58;21.23;;;10.20;99.90;;;;;;5028608;28;20491;-63
2022/11/11 05:42:06;;;;;;;34.53;21.63;;;10.20;99.90;;;;;;5029442;28;20042;-61
2022/11/11 05:44:32;;;;;;;33.13;21.20;;;10.20;99.90;;;;;;5024174;28;20049;-61
2022/11/11 05:46:57;;;;;;;33.15;20.23;;;10.20;99.90;;;;;;5030430;28;20064;-62
2022/11/11 05:49:24;;;;;;;34.42;19.75;;;10.20;99.90;;;;;;5022382;28;20045;-65
2022/11/11 05:51:50;;;;;;;32.75;20.55;;;10.30;99.90;;;;;;5028721;28;20045;-63
2022/11/11 05:54:16;;;;;;;34.60;20.63;;;10.30;99.90;;;;;;5011774;28;20034;-63
2022/11/11 05:56:42;;;;;;;40.50;21.27;;;10.30;99.90;;;;;;5030216;28;20064;-63
2022/11/11 05:59:08;;;;;;;35.17;20.65;;;10.30;99.90;;;;;;5032132;28;20523;-64
2022/11/11 06:01:34;;;;;;;34.08;20.73;;;10.30;99.90;;;;;;5029169;28;20033;-63
2022/11/11 06:04:00;;;;;;;34.33;20.17;;;10.30;99.90;;;;;;5028215;28;20056;-62
2022/11/11 06:06:26;;;;;;;33.83;20.10;;;10.30;99.90;;;;;;5029081;28;20045;-62
2022/11/11 06:08:51;;;;;;;33.08;19.20;;;10.30;99.90;;;;;;5028458;28;20056;-64
2022/11/11 06:11:17;;;;;;;28.88;19.05;;;10.30;99.90;;;;;;5029835;28;20044;-61
2022/11/11 06:13:43;;;;;;;38.00;19.88;;;10.30;99.90;;;;;;5024042;28;20049;-62
2022/11/11 06:16:09;;;;;;;32.88;20.08;;;10.30;99.90;;;;;;5031654;28;20032;-62
2022/11/11 06:18:34;;;;;;;28.90;19.77;;;10.30;99.90;;;;;;5027101;28;20033;-62
2022/11/11 06:21:00;;;;;;;32.53;18.85;;;10.30;99.90;;;;;;5027845;28;20111;-64
2022/11/11 06:23:27;;;;;;;32.28;19.33;;;10.30;99.90;;;;;;5029810;28;20038;-64
2022/11/11 06:26:12;;;;;;;38.95;20.02;;;10.40;99.90;;;;;;5028402;28;20045;-64
2022/11/11 06:28:49;;;;;;;34.05;19.42;;;10.30;99.90;;;;;;5030913;28;20053;-64
2022/11/11 06:31:20;;;;;;;31.58;19.48;;;10.30;99.90;;;;;;5027226;28;20051;-63
2022/11/11 06:33:46;;;;;;;28.50;19.00;;;10.40;99.90;;;;;;5028823;28;20103;-62
2022/11/11 06:36:14;;;;;;;32.72;19.73;;;10.40;99.90;;;;;;5033549;28;20041;-64
2022/11/11 06:38:41;;;;;;;34.25;19.80;;;10.30;99.90;;;;;;5029885;28;20072;-64
2022/11/11 06:41:07;;;;;;;30.23;19.17;;;10.40;99.90;;;;;;5015878;28;20300;-64
2022/11/11 06:43:33;;;;;;;33.50;19.25;;;10.40;99.90;;;;;;5019983;28;20044;-63
2022/11/11 06:45:59;;;;;;;28.30;18.13;;;10.40;99.90;;;;;;5016446;28;20045;-63
2022/11/11 06:48:27;;;;;;;31.42;19.25;;;10.40;99.90;;;;;;5016404;28;20034;-64
2022/11/11 06:50:54;;;;;;;33.03;19.05;;;10.40;99.90;;;;;;5015136;28;20037;-62
2022/11/11 06:53:21;;;;;;;32.78;18.73;;;10.40;99.90;;;;;;5015261;28;20740;-64
2022/11/11 06:55:46;;;;;;;31.17;18.60;;;10.40;99.90;;;;;;5012927;28;20044;-64
2022/11/11 06:58:18;;;;;;;29.02;18.58;;;10.40;99.90;;;;;;5026787;28;20163;-64
2022/11/11 07:00:46;;;;;;;33.10;18.08;;;10.50;99.90;;;;;;5029914;28;20072;-64
2022/11/11 07:03:14;;;;;;;30.25;18.08;;;10.50;99.90;;;;;;5015894;28;20520;-64
2022/11/11 07:05:41;;;;;;;30.60;18.42;;;10.50;99.90;;;;;;5026571;28;20049;-64
2022/11/11 07:08:09;;;;;;;29.52;18.25;;;10.50;99.90;;;;;;5031581;28;20092;-64
2022/11/11 07:10:38;;;;;;;27.67;17.98;;;10.50;99.90;;;;;;5029185;28;20045;-64
2022/11/11 07:13:05;;;;;;;32.13;18.10;;;10.50;99.90;;;;;;5032589;28;20087;-63
2022/11/11 07:15:31;;;;;;;32.60;18.50;;;10.50;99.90;;;;;;5031082;28;20037;-63
2022/11/11 07:17:57;;;;;;;30.10;17.98;;;10.50;99.90;;;;;;5030135;28;20034;-64
2022/11/11 07:20:23;;;;;;;29.05;17.05;;;10.50;99.90;;;;;;5022445;28;20052;-64
2022/11/11 07:22:48;;;;;;;31.83;17.95;;;10.50;99.90;;;;;;5024848;28;20204;-64
2022/11/11 07:25:14;;;;;;;32.20;17.13;;;10.50;99.90;;;;;;5027639;28;20038;-63
2022/11/11 07:27:41;;;;;;;33.05;17.55;;;10.50;99.90;;;;;;5016885;28;20046;-63
2022/11/11 07:30:08;;;;;;;28.67;17.40;;;10.60;99.90;;;;;;5024041;28;20065;-64
2022/11/11 07:32:34;;;;;;;24.23;16.15;;;10.60;99.90;;;;;;5024276;28;20557;-63
2022/11/11 07:35:00;;;;;;;26.85;17.25;;;10.60;99.90;;;;;;5026157;28;20033;-63
2022/11/11 07:37:26;;;;;;;26.30;16.85;;;10.60;99.90;;;;;;5026326;28;20179;-64
2022/11/11 07:39:51;;;;;;;26.98;16.60;;;10.60;99.90;;;;;;5021141;28;20048;-64
2022/11/11 07:42:17;;;;;;;25.63;15.98;;;10.60;99.90;;;;;;5026930;28;20029;-63
2022/11/11 07:44:43;;;;;;;26.92;16.70;;;10.60;99.90;;;;;;5024478;28;20393;-63
2022/11/11 07:47:09;;;;;;;26.58;16.80;;;10.60;99.90;;;;;;5025059;28;20049;-63
2022/11/11 07:49:35;;;;;;;27.35;16.83;;;10.70;99.90;;;;;;5024333;28;20401;-62
2022/11/11 07:52:00;;;;;;;25.08;15.05;;;10.70;99.90;;;;;;5027957;28;20049;-62
2022/11/11 07:54:26;;;;;;;27.83;16.10;;;10.60;99.90;;;;;;5029334;28;20464;-63
2022/11/11 07:56:52;;;;;;;27.17;15.98;;;10.70;99.90;;;;;;5029215;28;20107;-64
2022/11/11 07:59:17;;;;;;;26.20;16.17;;;10.70;99.90;;;;;;5028304;28;20472;-63
2022/11/11 08:01:43;;;;;;;27.33;15.75;;;10.70;99.90;;;;;;5025674;28;20037;-63
2022/11/11 08:04:08;;;;;;;25.88;15.30;;;10.70;99.90;;;;;;5020657;28;20558;-64
2022/11/11 08:06:34;;;;;;;24.67;15.98;;;10.70;99.90;;;;;;5021991;28;20500;-64
2022/11/11 08:09:00;;;;;;;27.10;16.08;;;10.70;99.90;;;;;;5021003;28;20044;-63
2022/11/11 08:14:09;;;;;;;27.40;15.93;;;10.70;99.90;;;;;;5023582;28;20525;-64
2022/11/11 08:16:35;;;;;;;24.98;15.20;;;10.80;99.90;;;;;;5022711;28;20045;-64
2022/11/11 08:19:01;;;;;;;27.60;15.93;;;10.80;99.90;;;;;;5019394;28;20040;-64
2022/11/11 08:21:26;;;;;;;26.42;15.68;;;10.80;99.90;;;;;;5023382;28;20085;-64
2022/11/11 08:23:53;;;;;;;26.40;15.13;;;10.80;99.90;;;;;;5017555;28;20052;-64
2022/11/11 08:26:20;;;;;;;23.10;14.18;;;10.80;99.90;;;;;;5023004;28;20468;-64
2022/11/11 08:28:46;;;;;;;25.77;15.73;;;10.80;99.90;;;;;;5026159;28;20384;-63
2022/11/11 08:31:12;;;;;;;24.15;14.68;;;10.80;99.90;;;;;;5028866;28;20038;-63
2022/11/11 08:33:38;;;;;;;27.55;15.82;;;10.90;99.90;;;;;;5029559;28;20059;-63
2022/11/11 08:36:10;;;;;;;27.60;14.82;;;10.90;99.90;;;;;;5024870;28;20488;-63
2022/11/11 08:38:36;;;;;;;24.90;14.90;;;10.90;99.90;;;;;;5023677;28;20042;-64
2022/11/11 08:41:03;;;;;;;27.10;14.80;;;10.90;99.90;;;;;;5025668;28;20029;-63
2022/11/11 08:43:32;;;;;;;23.88;14.90;;;10.90;99.90;;;;;;5026150;28;20046;-64
2022/11/11 08:46:00;;;;;;;22.25;13.40;;;10.90;99.90;;;;;;5031355;28;20456;-63
2022/11/11 08:48:26;;;;;;;22.85;14.25;;;10.90;99.90;;;;;;5023316;28;20041;-64
2022/11/11 08:50:52;;;;;;;22.83;14.75;;;10.90;99.90;;;;;;5027306;28;20427;-63
2022/11/11 08:53:19;;;;;;;22.63;14.73;;;11.00;99.90;;;;;;5023473;28;20113;-63
2022/11/11 08:55:44;;;;;;;23.25;14.02;;;11.00;99.90;;;;;;5024494;28;20424;-63
2022/11/11 08:58:14;;;;;;;25.75;14.05;;;11.00;99.90;;;;;;5020592;28;20108;-62
2022/11/11 09:00:41;;;;;;;24.27;13.98;;;11.00;99.90;;;;;;5026577;28;20398;-64
2022/11/11 09:03:09;;;;;;;25.00;14.13;;;11.00;99.90;;;;;;5021124;28;20056;-62
2022/11/11 09:05:37;;;;;;;24.80;14.13;;;11.00;99.90;;;;;;5020200;28;20073;-63
2022/11/11 09:08:06;;;;;;;21.83;13.30;;;11.00;99.90;;;;;;5026125;28;20041;-62
2022/11/11 09:10:35;;;;;;;23.38;14.07;;;11.10;99.90;;;;;;5024275;28;20569;-64
2022/11/11 09:13:02;;;;;;;19.42;12.98;;;11.00;99.90;;;;;;5022555;28;20044;-63
2022/11/11 09:15:28;;;;;;;22.15;13.65;;;11.00;99.90;;;;;;5030901;28;20516;-63
2022/11/11 09:17:54;;;;;;;22.85;13.85;;;11.10;99.90;;;;;;5028403;28;20041;-64
2022/11/11 09:20:20;;;;;;;22.55;13.40;;;11.10;99.90;;;;;;5026392;28;20036;-63
2022/11/11 09:22:46;;;;;;;21.35;12.63;;;11.10;99.90;;;;;;5028526;28;20408;-63
2022/11/11 09:25:13;;;;;;;21.67;13.95;;;11.00;99.90;;;;;;5025561;28;20515;-64
2022/11/11 09:27:38;;;;;;;22.80;14.02;;;11.10;99.90;;;;;;5018412;28;20084;-63
2022/11/11 09:30:05;;;;;;;23.05;13.90;;;11.10;99.90;;;;;;5028268;28;20029;-64
2022/11/11 09:32:31;;;;;;;20.05;13.00;;;11.20;99.90;;;;;;5029476;28;20496;-64
2022/11/11 09:34:57;;;;;;;25.52;13.02;;;11.20;99.90;;;;;;5029191;28;20034;-64
2022/11/11 09:37:23;;;;;;;21.90;13.13;;;11.20;99.90;;;;;;5028048;28;20048;-64
2022/11/11 09:39:49;;;;;;;18.48;13.20;;;11.20;99.90;;;;;;5030299;28;20049;-64
2022/11/11 09:42:15;;;;;;;23.52;13.45;;;11.20;99.90;;;;;;5030567;28;20037;-64
2022/11/11 09:44:47;;;;;;;18.27;12.15;;;11.20;99.90;;;;;;5028861;28;20056;-63
2022/11/11 09:47:27;;;;;;;24.25;14.07;;;11.20;99.90;;;;;;5028840;28;20515;-63
2022/11/11 09:49:58;;;;;;;24.23;13.00;;;11.20;99.90;;;;;;5030420;28;20120;-64
2022/11/11 09:52:35;;;;;;;23.92;13.05;;;11.30;99.90;;;;;;5028662;28;20171;-64
2022/11/11 09:55:03;;;;;;;20.20;12.60;;;11.30;99.90;;;;;;5029140;28;20117;-64
2022/11/11 09:57:39;;;;;;;18.55;13.30;;;11.40;99.90;;;;;;5012709;28;20041;-63
2022/11/11 10:00:15;;;;;;;19.92;13.10;;;11.40;99.90;;;;;;5033879;28;20084;-63
2022/11/11 10:02:48;;;;;;;20.33;12.93;;;11.40;99.90;;;;;;5030952;28;20422;-64
2022/11/11 10:05:54;;;;;;;20.90;12.68;;;11.50;99.90;;;;;;5035973;28;20495;-64
2022/11/11 10:08:27;;;;;;;22.40;12.70;;;11.50;99.90;;;;;;4975488;28;20050;-62
2022/11/11 10:10:57;;;;;;;19.30;12.35;;;11.50;99.90;;;;;;5025841;28;20118;-63
2022/11/11 10:13:30;;;;;;;18.52;11.68;;;11.50;99.90;;;;;;5036847;28;20046;-62
2022/11/11 10:16:14;;;;;;;20.73;12.70;;;11.60;99.90;;;;;;5035462;28;20029;-64
2022/11/11 10:18:45;;;;;;;18.63;11.98;;;11.60;99.90;;;;;;5036544;28;20143;-63
2022/11/11 10:21:25;;;;;;;18.92;12.27;;;11.60;99.90;;;;;;5033209;28;20045;-62
2022/11/11 10:23:54;;;;;;;19.83;12.75;;;11.60;99.90;;;;;;5034851;28;20512;-62
2022/11/11 10:26:36;;;;;;;18.10;12.10;;;11.60;99.90;;;;;;5035422;28;21029;-64
2022/11/11 10:29:04;;;;;;;16.70;11.77;;;11.70;99.90;;;;;;5035169;28;20571;-64
2022/11/11 10:31:30;;;;;;;21.83;12.32;;;11.70;99.90;;;;;;5036889;28;20069;-64
2022/11/11 10:34:02;;;;;;;19.98;12.15;;;11.70;99.90;;;;;;5035235;28;20471;-64
2022/11/11 10:36:30;;;;;;;19.45;12.07;;;11.70;99.90;;;;;;5031777;28;20048;-63
2022/11/11 10:38:58;;;;;;;18.42;12.35;;;11.60;99.90;;;;;;5035998;28;20068;-62
2022/11/11 10:41:45;;;;;;;16.13;12.07;;;11.60;99.90;;;;;;5034828;28;20049;-64
2022/11/11 10:44:37;;;;;;;20.00;12.52;;;11.60;99.90;;;;;;5036376;28;20091;-64
2022/11/11 10:47:51;;;;;;;18.70;12.37;;;11.60;99.90;;;;;;5031399;28;20049;-64
2022/11/11 10:50:25;;;;;;;21.95;13.40;;;11.60;99.90;;;;;;5031577;28;20068;-64
2022/11/11 10:52:58;;;;;;;16.63;12.00;;;11.60;99.90;;;;;;5036488;28;20044;-64
2022/11/11 10:55:57;;;;;;;20.38;12.93;;;11.60;99.90;;;;;;5036189;28;20080;-63
2022/11/11 10:58:51;;;;;;;16.80;11.43;;;11.60;99.90;;;;;;5034836;28;20518;-64
2022/11/11 11:01:26;;;;;;;19.50;12.15;;;11.60;99.90;;;;;;5036228;28;20037;-63
2022/11/11 11:04:00;;;;;;;17.23;12.30;;;11.60;99.90;;;;;;5033751;28;20138;-64
2022/11/11 11:06:33;;;;;;;18.55;12.38;;;11.60;99.90;;;;;;5026230;28;20050;-64
2022/11/11 11:09:12;;;;;;;20.38;12.80;;;11.70;99.90;;;;;;5035690;28;20110;-63
2022/11/11 11:11:43;;;;;;;21.05;13.23;;;11.70;99.90;;;;;;5027520;28;20038;-63
2022/11/11 11:14:31;;;;;;;19.73;11.90;;;11.70;99.90;;;;;;5031556;28;20116;-63
2022/11/11 11:17:04;;;;;;;19.80;11.43;;;11.70;99.90;;;;;;5031443;28;20057;-62
2022/11/11 11:19:29;;;;;;;20.83;12.07;;;11.70;99.90;;;;;;5027199;28;20068;-64
2022/11/11 11:22:01;;;;;;;18.27;11.57;;;11.70;99.90;;;;;;5031377;28;20077;-64
2022/11/11 11:24:28;;;;;;;16.38;11.75;;;11.90;99.90;;;;;;5024911;28;20084;-63
2022/11/11 11:26:59;;;;;;;20.02;12.30;;;11.90;99.90;;;;;;5031327;28;20076;-64
2022/11/11 11:29:27;;;;;;;20.45;12.65;;;12.00;99.90;;;;;;5032370;28;20041;-62
2022/11/11 11:31:53;;;;;;;19.85;12.57;;;12.10;99.90;;;;;;5032519;28;20045;-63
2022/11/11 11:34:19;;;;;;;16.52;11.40;;;12.00;99.90;;;;;;5028800;28;20029;-62
2022/11/11 11:36:59;;;;;;;17.20;12.38;;;12.10;99.90;;;;;;5031316;28;20403;-62
2022/11/11 11:39:36;;;;;;;19.30;12.05;;;12.10;99.90;;;;;;5031985;28;20090;-62
2022/11/11 11:42:02;;;;;;;16.80;11.73;;;12.20;99.90;;;;;;5031209;28;20053;-64
2022/11/11 11:44:34;;;;;;;19.92;11.65;;;12.20;99.90;;;;;;5032796;28;20060;-63
2022/11/11 11:47:16;;;;;;;18.83;12.18;;;12.20;99.90;;;;;;5022922;28;20034;-63
2022/11/11 11:49:45;;;;;;;;;;;12.30;99.90;;;;;;5026314;28;20049;-63
2022/11/11 11:52:37;;;;;;;17.15;11.85;;;12.30;99.90;;;;;;5023427;28;19920;-64
2022/11/11 11:55:16;;;;;;;16.42;11.73;;;12.30;99.90;;;;;;5028417;28;20504;-63
2022/11/11 11:57:41;;;;;;;17.83;10.88;;;12.40;99.90;;;;;;5031174;28;20036;-63
2022/11/11 12:00:36;;;;;;;17.25;11.70;;;12.50;99.90;;;;;;5029864;28;20125;-63
2022/11/11 12:03:14;;;;;;;17.60;11.40;;;12.50;99.90;;;;;;5017275;28;21352;-64
2022/11/11 12:06:08;;;;;;;14.15;10.40;;;12.50;99.90;;;;;;5026327;28;20116;-63
2022/11/11 12:08:44;;;;;;;19.27;11.75;;;12.50;99.90;;;;;;5043311;28;20213;-63
2022/11/11 12:11:36;;;;;;;18.33;11.00;;;12.50;99.90;;;;;;5028628;28;20116;-63
2022/11/11 12:14:32;;;;;;;16.58;11.25;;;12.50;99.90;;;;;;5020563;28;20041;-62
2022/11/11 12:16:58;;;;;;;18.35;11.40;;;12.50;99.90;;;;;;5023846;28;20037;-63
2022/11/11 12:19:53;;;;;;;16.65;11.27;;;12.50;99.90;;;;;;5028579;28;20044;-64
2022/11/11 12:22:30;;;;;;;14.93;10.40;;;12.50;99.90;;;;;;5020794;28;20049;-63
2022/11/11 12:25:12;;;;;;;17.60;11.15;;;12.50;99.90;;;;;;5022848;28;20336;-63
2022/11/11 12:27:50;;;;;;;14.82;9.55;;;12.50;99.90;;;;;;5019602;28;20045;-62
2022/11/11 12:30:27;;;;;;;18.48;10.65;;;12.50;99.90;;;;;;5019530;28;20040;-63
2022/11/11 12:32:55;;;;;;;17.30;11.02;;;12.50;99.90;;;;;;5017427;28;20157;-63
2022/11/11 12:35:36;;;;;;;14.27;9.40;;;12.40;99.90;;;;;;5023705;28;21245;-61
2022/11/11 12:38:29;;;;;;;15.80;10.60;;;12.40;99.90;;;;;;5018331;28;20041;-61
2022/11/11 12:41:03;;;;;;;15.82;10.75;;;12.40;99.90;;;;;;5020663;28;20041;-62
2022/11/11 12:43:55;;;;;;;15.00;10.75;;;12.30;99.90;;;;;;5017710;28;20416;-62
2022/11/11 12:46:57;;;;;;;14.25;10.05;;;12.30;99.90;;;;;;5018665;28;20050;-64
2022/11/11 12:49:44;;;;;;;14.40;10.30;;;12.40;99.90;;;;;;5019089;28;20085;-62
2022/11/11 12:52:18;;;;;;;15.27;10.13;;;12.40;99.90;;;;;;5019337;28;20053;-62
2022/11/11 12:55:02;;;;;;;18.58;11.38;;;12.50;99.90;;;;;;5023444;28;20068;-62
2022/11/11 12:57:57;;;;;;;15.32;10.40;;;12.50;99.90;;;;;;5021136;28;20037;-62
2022/11/11 13:00:24;;;;;;;14.65;9.82;;;12.60;99.90;;;;;;5024264;28;20136;-62
2022/11/11 13:03:09;;;;;;;14.45;10.50;;;12.60;99.90;;;;;;5016404;28;20400;-62
2022/11/11 13:06:00;;;;;;;15.27;10.15;;;12.60;99.90;;;;;;5012214;28;20557;-63
2022/11/11 13:08:49;;;;;;;15.52;10.10;;;12.70;99.90;;;;;;5020308;28;20607;-62
2022/11/11 13:11:24;;;;;;;13.90;10.00;;;12.70;99.90;;;;;;5019249;28;20118;-62
2022/11/11 13:13:55;;;;;;;15.98;9.75;;;12.80;99.90;;;;;;5019098;28;20042;-62
2022/11/11 13:16:23;;;;;;;18.60;11.03;;;12.80;99.90;;;;;;5021638;28;20515;-61
2022/11/11 13:19:00;;;;;;;16.10;10.07;;;12.90;99.90;;;;;;5020137;28;20288;-62
2022/11/11 13:21:50;;;;;;;14.57;10.32;;;13.00;99.90;;;;;;5020096;28;20103;-64
2022/11/11 13:24:21;;;;;;;16.30;10.18;;;13.10;99.90;;;;;;5022309;28;20040;-62
2022/11/11 13:27:16;;;;;;;15.85;10.52;;;13.10;99.90;;;;;;5023940;28;20038;-64
2022/11/11 13:30:09;;;;;;;16.67;9.23;;;13.10;99.90;;;;;;5018526;28;20411;-62
2022/11/11 13:32:43;;;;;;;12.73;9.18;;;13.00;99.90;;;;;;4998339;22;20047;-63
2022/11/11 13:35:39;;;;;;;12.77;9.23;;;13.00;99.90;;;;;;4961814;28;20049;-62
2022/11/11 13:38:06;;;;;;;15.80;9.38;;;13.10;99.90;;;;;;4951129;28;20039;-63
2022/11/11 13:40:41;;;;;;;16.67;9.43;;;13.10;99.90;;;;;;4971148;28;20039;-61
2022/11/11 13:43:22;;;;;;;16.02;9.50;;;13.00;99.90;;;;;;4966451;28;20129;-61
2022/11/11 13:45:54;;;;;;;19.38;9.35;;;13.00;99.90;;;;;;4965725;28;20404;-62
2022/11/11 13:48:25;;;;;;;;;;;13.00;99.90;;;;;;4970662;28;20047;-60
2022/11/11 13:50:50;;;;;;;18.92;9.30;;;13.00;99.90;;;;;;4966908;28;20016;-62
2022/11/11 13:53:29;;;;;;;15.60;9.38;;;13.00;99.90;;;;;;4969710;28;20360;-64
2022/11/11 13:56:02;;;;;;;18.33;9.77;;;13.00;99.90;;;;;;4979577;28;20393;-62
2022/11/11 13:58:36;;;;;;;;;;;13.00;99.90;;;;;;4971627;28;20508;-63
2022/11/11 14:01:05;;;;;;;19.33;8.60;;;13.10;99.90;;;;;;4959892;28;19919;-62
2022/11/11 14:03:43;;;;;;;13.77;9.00;;;13.10;99.90;;;;;;4966575;28;20054;-61